Latest Coastal Weather Observations for Port Macquarie Airport

IDN60701

Issued at 6:52 pm EDT Saturday 20 December 2014 (issued every 10 minutes, with the page automatically refreshed every 10 minutes)

About coastal observations | Map of coastal stations | Coastal observations for NSW | Marine services | Other Formats
Station Details ID: 060139 Name: PORT MACQUARIE AIRPORT AWS Lat: -31.43 Lon: 152.87 Height: 4.2 m
Data from the previous 72 hours. | See also: Recent months at Port Macquarie Airport
Date/Time
EDT
Temp

°C
Wind Pressure Rain
since 9am
mm
Weather Cloud Vis
km
Sea
Height
m
Swell
Dir
 
Speed
knots
Gust
knots
hPa Trend Height
m
Period
s
Dir
20/06:30pm 22.6 E 5 7 1016.1 - 0.0 - Cloudy 10 - - - -
20/06:00pm 22.7 E 6 10 1015.6 - 0.0 - Cloudy 10 - - - -
20/05:30pm 22.7 ENE 7 9 1015.3 - 0.0 - Cloudy 10 - - - -
20/05:00pm 22.9 E 8 11 1015.2 - 0.0 - - 10 - - - -
20/04:30pm 23.1 E 9 12 1015.3 - 0.0 - Partly cloudy 10 - - - -
20/04:00pm 23.5 ESE 10 17 1015.4 - 0.0 - Cloudy 10 - - - -
20/03:30pm 23.7 ESE 9 14 1015.7 - 0.0 - Cloudy 10 - - - -
20/03:00pm 23.8 E 11 13 1015.9 - 0.0 - Cloudy 10 - - - -
20/02:30pm 25.2 E 10 13 1016.2 - 0.0 - Partly cloudy 10 - - - -
20/02:00pm 23.5 E 9 12 1016.4 - 0.0 - Partly cloudy 10 - - - -
20/01:30pm 24.5 ESE 9 12 1016.8 - 0.0 - Partly cloudy 10 - - - -
20/01:00pm 24.1 ESE 9 14 1017.1 - 0.0 - Partly cloudy 10 - - - -
20/12:30pm 23.2 SSE 6 10 1017.6 - 0.0 - Cloudy 10 - - - -
20/12:00pm 23.1 SE 5 11 1017.7 - 0.0 - Cloudy 10 - - - -
20/11:30am 23.4 SE 6 8 1017.8 - 0.0 - Partly cloudy 10 - - - -
20/11:00am 22.4 SSE 6 8 1018.0 - 0.0 - Cloudy 10 - - - -
20/10:30am 22.2 SE 7 8 1017.9 - 0.0 - Partly cloudy 10 - - - -
20/10:00am 22.6 SSW 8 11 1017.7 - 0.0 - Partly cloudy 10 - - - -
20/09:30am 22.2 - 5 9 1017.7 - 0.0 - Cloudy 10 - - - -
20/09:00am 21.8 SSW 5 7 1017.5 - 0.0 - Cloudy 10 - - - -
20/08:30am 21.2 SW 7 9 1017.4 - 0.0 - Partly cloudy 10 - - - -
20/08:00am 21.4 SW 6 8 1017.1 - 0.0 - Partly cloudy 10 - - - -
20/07:30am 20.3 SW 7 9 1016.9 - 0.0 - Partly cloudy 10 - - - -
20/07:00am 19.3 SW 6 8 1016.5 - 0.0 - Partly cloudy 10 - - - -
20/06:30am 18.0 SW 5 6 1016.3 - 0.0 - Partly cloudy 10 - - - -
20/06:00am 17.1 CALM 0 0 1016.1 - 0.0 - Partly cloudy 10 - - - -
20/05:30am 17.5 CALM 0 0 1015.9 - 0.0 - - 10 - - - -
20/05:00am 18.1 SW 5 6 1015.6 - 0.0 - Partly cloudy 10 - - - -
20/04:30am 18.7 WSW 6 8 1015.6 - 0.0 - Partly cloudy 10 - - - -
20/04:00am 18.3 WSW 5 6 1015.5 - 0.0 - Partly cloudy 10 - - - -
20/03:30am 19.1 SSW 7 8 1015.4 - 0.0 - Partly cloudy 10 - - - -
20/03:00am 19.3 SW 7 9 1015.7 - 0.0 - Cloudy 10 - - - -
20/02:30am 18.9 SSW 4 6 1015.8 - 0.0 - Cloudy 10 - - - -
20/02:00am 19.3 W 3 4 1016.0 - 0.0 - Partly cloudy 10 - - - -
20/01:30am 19.9 WSW 5 6 1016.1 - 0.0 - Partly cloudy 10 - - - -
20/01:00am 20.2 SW 5 6 1016.4 - 0.0 - Partly cloudy 10 - - - -
20/12:30am 20.4 SW 6 8 1016.5 - 0.0 - Partly cloudy 10 - - - -
20/12:00am 20.6 - 6 8 1016.6 - 0.0 - Partly cloudy 10 - - - -
 
Date/Time
EDT
Temp

°C
Wind Pressure Rain
since 9am
mm
Weather Cloud Vis
km
Sea
Height
m
Swell
Dir
 
Speed
knots
Gust
knots
hPa Trend Height
m
Period
s
Dir
19/11:30pm 21.1 SSW 8 12 1016.8 - 0.0 - Partly cloudy 10 - - - -
19/11:00pm 21.2 SW 7 9 1016.7 - 0.0 - Partly cloudy 10 - - - -
19/10:30pm 21.5 S 7 9 1016.4 - 0.0 - Partly cloudy 10 - - - -
19/10:00pm 21.5 SW 5 6 1016.1 - 0.0 - Partly cloudy 10 - - - -
19/09:30pm 21.8 SW 5 6 1015.8 - 0.0 - Cloudy 10 - - - -
19/09:00pm 21.9 S 5 7 1015.5 - 0.0 - Cloudy 10 - - - -
19/08:30pm 22.0 S 6 8 1015.0 - 0.0 - Cloudy 10 - - - -
19/08:00pm 22.2 S 6 9 1014.4 - 0.0 - Partly cloudy 10 - - - -
19/07:30pm 22.2 S 6 9 1013.9 - 0.0 - Cloudy 10 - - - -
19/07:00pm 22.4 S 9 13 1013.2 - 0.0 - Cloudy 10 - - - -
19/06:30pm 22.7 S 9 15 1012.5 - 0.0 - Cloudy 10 - - - -
19/06:00pm 22.7 S 12 18 1012.2 - 0.0 - Mostly clear 10 - - - -
19/05:30pm 22.7 S 14 19 1011.7 - 0.0 - - 10 - - - -
19/05:00pm 23.7 S 15 21 1011.5 - 0.0 - - 10 - - - -
19/04:30pm 24.1 S 16 22 1011.3 - 0.0 - - 10 - - - -
19/04:00pm 24.3 S 15 22 1011.3 - 0.0 - - 10 - - - -
19/03:30pm 24.2 S 16 25 1011.0 - 0.0 - - 10 - - - -
19/03:06pm 24.5 S 17 29 1010.9 - 0.0 - Partly cloudy 10 - - - -
19/03:00pm 24.7 S 16 24 1011.0 - 0.0 - Mostly clear 10 - - - -
19/02:32pm 24.4 S 19 29 1011.0 - 0.0 - Partly cloudy 10 - - - -
19/02:31pm 24.3 S 19 29 1010.9 - 0.0 - Partly cloudy 10 - - - -
19/02:30pm 24.1 S 20 29 1010.9 - 0.0 - - 10 - - - -
19/02:08pm 23.6 SSW 19 29 1011.1 - 0.0 - - 10 - - - -
19/02:00pm 24.3 S 17 25 1011.2 - 0.0 - - 10 - - - -
19/01:30pm 23.1 S 18 26 1011.1 - 0.0 - - 10 - - - -
19/01:09pm 23.0 S 21 31 1011.2 - 0.0 - - 10 - - - -
19/01:00pm 23.3 S 22 30 1011.0 - 0.0 - - 10 - - - -
19/12:52pm 23.8 S 20 30 1010.9 - 0.0 - - 10 - - - -
19/12:30pm 23.8 S 22 31 1010.9 - 0.0 - - 10 - - - -
19/12:01pm 24.7 S 19 29 1011.2 - 0.0 - - 10 - - - -
19/12:00pm 24.4 S 18 27 1011.2 - 0.0 - - 10 - - - -
19/11:30am 24.8 S 19 31 1011.0 - 0.0 - - 10 - - - -
19/11:00am 24.6 S 19 30 1010.9 - 0.0 - - 10 - - - -
19/10:48am 23.8 S 20 31 1010.7 - 0.0 - - 10 - - - -
19/10:30am 23.7 S 21 30 1010.6 - 0.0 - - 10 - - - -
19/10:25am 24.0 S 19 29 1010.6 - 0.0 - Partly cloudy 10 - - - -
19/10:00am 23.8 S 18 26 1010.3 - 0.0 - - 10 - - - -
19/09:41am 24.4 S 17 27 1010.2 - 0.0 - - 10 - - - -
19/09:30am 23.8 S 17 26 1010.1 - 0.0 - - 10 - - - -
19/09:20am 24.4 S 15 24 1009.8 - 0.0 - - 10 - - - -
19/09:00am 27.2 WSW 9 14 1009.5 - 5.4 - - 10 - - - -
19/08:30am 26.0 W 8 11 1008.9 - 5.4 - - 10 - - - -
19/08:00am 24.3 W 7 10 1008.5 - 5.4 - - 10 - - - -
19/07:30am 23.2 W 8 10 1008.3 - 5.4 - - 10 - - - -
19/07:00am 22.7 W 7 11 1007.9 - 5.4 - - 10 - - - -
19/06:30am 21.8 W 9 13 1007.6 - 5.4 - - 10 - - - -
19/06:00am 21.6 W 11 16 1007.2 - 5.4 - - 10 - - - -
19/05:30am 21.3 W 10 13 1006.7 - 5.4 - - 10 - - - -
19/05:00am 20.3 W 7 10 1006.4 - 5.4 - - 10 - - - -
19/04:30am 20.6 WNW 7 9 1006.4 - 5.4 - - 10 - - - -
19/04:00am 20.8 W 8 12 1006.1 - 5.4 - - 10 - - - -
19/03:30am 21.0 W 7 10 1006.2 - 5.4 - - 10 - - - -
19/03:00am 20.5 W 4 7 1006.2 - 5.4 - - 10 - - - -
19/02:30am 20.8 WNW 3 5 1006.2 - 5.4 - - 10 - - - -
19/02:00am 21.5 W 6 9 1006.3 - 5.4 - - 10 - - - -
19/01:30am 21.9 W 7 10 1006.3 - 5.4 - - 10 - - - -
19/01:00am 22.3 WNW 8 11 1006.3 - 5.4 - - 10 - - - -
19/12:30am 22.3 WNW 7 9 1006.5 - 5.4 - - 10 - - - -
19/12:00am 22.2 WNW 6 9 1006.6 - 5.4 - Mostly clear 10 - - - -
 
Date/Time
EDT
Temp

°C
Wind Pressure Rain
since 9am
mm
Weather Cloud Vis
km
Sea
Height
m
Swell
Dir
 
Speed
knots
Gust
knots
hPa Trend Height
m
Period
s
Dir
18/11:30pm 22.0 NW 6 9 1006.9 - 5.4 - - 10 - - - -
18/11:00pm 21.8 NW 6 7 1006.8 - 5.4 - - 10 - - - -
18/10:30pm 21.9 NW 6 9 1007.1 - 5.4 - - 10 - - - -
18/10:00pm 21.9 NW 5 7 1007.2 - 5.4 - - 10 - - - -
18/09:30pm 22.1 N 6 8 1007.1 - 5.4 - - 10 - - - -
18/09:00pm 22.1 NNE 5 6 1007.1 - 5.4 - Cloudy 10 - - - -
18/08:30pm 22.2 N 7 9 1007.1 - 5.4 - - 10 - - - -
18/08:00pm 22.6 NNE 7 10 1006.7 - 5.4 - Partly cloudy 10 - - - -
18/07:59pm 22.6 NNE 7 10 1006.6 - 5.4 - Partly cloudy 10 - - - -
18/07:30pm 23.2 N 3 4 1006.3 - 5.4 - Partly cloudy 9 - - - -
18/07:25pm 23.2 NNE 3 4 1006.1 - 5.4 - Partly cloudy 9 - - - -
18/07:24pm 23.2 N 4 5 1006.1 - 5.4 - Partly cloudy 9 - - - -
18/07:00pm 23.2 NE 5 7 1005.8 - 5.4 - - 10 - - - -
18/06:30pm 23.2 NNE 9 12 1005.5 - 5.4 - Partly cloudy 10 - - - -
18/06:06pm 23.7 NE 7 10 1005.7 - 5.4 - Partly cloudy 10 - - - -
18/06:03pm 23.6 NE 7 9 1005.7 - 5.4 - Partly cloudy 9 - - - -
18/06:00pm 23.7 NE 6 9 1005.8 - 5.4 Recent precip. Cloudy 9 - - - -
18/05:36pm 24.0 NE 7 9 1006.2 - 5.2 - Partly cloudy 9 - - - -
18/05:30pm 24.0 NE 7 9 1006.0 - 5.2 - Partly cloudy 9 - - - -
18/05:00pm 23.9 WNW 3 7 1006.3 - 5.0 - Partly cloudy 10 - - - -
18/04:33pm 23.8 N 7 11 1005.6 - 4.8 - Partly cloudy 9 - - - -
18/04:30pm 23.8 N 9 15 1005.4 - 4.6 - Partly cloudy 10 - - - -
18/04:15pm 23.3 NE 8 12 1004.3 - 4.2 - Partly cloudy 5 - - - -
18/04:00pm 23.7 NNE 7 12 1004.9 - 2.0 - Partly cloudy 8 - - - -
18/03:40pm 24.0 NNE 10 18 1004.7 - 1.4 - Partly cloudy 5 - - - -
18/03:30pm 24.3 ENE 4 8 1005.5 - 0.0 - Cloudy 9 - - - -
18/03:28pm 24.3 ENE 5 8 1005.3 - 0.0 - Cloudy 9 - - - -
18/03:00pm 24.5 NE 9 14 1004.5 - 0.0 - - 10 - - - -
18/02:35pm 24.7 NE 11 14 1005.0 - 0.0 - Partly cloudy 10 - - - -
18/02:34pm 24.8 NE 11 14 1005.0 - 0.0 - Partly cloudy 10 - - - -
18/02:30pm 24.9 NE 11 14 1005.0 - 0.0 - Partly cloudy 10 - - - -
18/02:00pm 25.2 NE 10 14 1005.9 - 0.0 - Partly cloudy 10 - - - -
18/01:30pm 25.0 NE 13 19 1006.6 - 0.0 - Partly cloudy 10 - - - -
18/01:00pm 25.7 NE 10 13 1007.0 - 0.0 - Partly cloudy 10 - - - -
18/12:30pm 25.1 NE 13 17 1007.2 - 0.0 - Partly cloudy 10 - - - -
18/12:00pm 24.8 NE 13 18 1007.6 - 0.0 - Mostly cloudy 10 - - - -
18/11:30am 25.1 NE 10 14 1008.1 - 0.0 - Partly cloudy 10 - - - -
18/11:00am 25.2 NE 11 14 1008.0 - 0.0 - Partly cloudy 10 - - - -
18/10:30am 25.3 NE 10 14 1008.1 - 0.0 - - 10 - - - -
18/10:00am 25.3 NE 8 11 1008.0 - 0.0 - Partly cloudy 10 - - - -
18/09:30am 24.8 NNE 10 12 1008.4 - 0.0 - Partly cloudy 10 - - - -
18/09:00am 24.3 NNE 5 7 1008.8 - 0.4 - Mostly cloudy 10 - - - -
18/08:30am 23.7 NNW 5 8 1009.4 - 0.4 - Partly cloudy 10 - - - -
18/08:00am 22.8 NW 5 7 1009.5 - 0.4 - - 10 - - - -
18/07:30am 21.5 NNW 4 6 1009.4 - 0.4 - - 10 - - - -
18/07:00am 20.4 CALM 0 0 1009.2 - 0.4 - Partly cloudy 10 - - - -
18/06:30am 19.9 N 1 4 1009.3 - 0.4 - Cloudy 10 - - - -
18/06:00am 19.2 NNW 5 6 1009.5 - 0.4 - Cloudy 10 - - - -
18/05:30am 19.4 CALM 0 0 1009.3 - 0.4 - Partly cloudy 10 - - - -
18/05:00am 19.8 CALM 0 0 1009.3 - 0.4 - Partly cloudy 10 - - - -
18/04:30am 19.6 CALM 0 0 1009.2 - 0.4 - Partly cloudy 10 - - - -
18/04:00am 20.1 CALM 0 3 1009.2 - 0.4 - Partly cloudy 10 - - - -
18/03:30am 20.0 SSW 3 4 1009.4 - 0.4 - Partly cloudy 10 - - - -
18/03:00am 20.0 SW 3 5 1009.2 - 0.4 - Cloudy 10 - - - -
18/02:30am 19.9 WSW 4 5 1009.4 - 0.4 - Partly cloudy 10 - - - -
18/02:00am 19.7 W 1 3 1009.5 - 0.4 - Partly cloudy 10 - - - -
18/01:30am 19.6 WNW 5 6 1009.6 - 0.4 - Cloudy 10 - - - -
18/01:00am 19.4 WNW 2 4 1009.4 - 0.4 - Cloudy 10 - - - -
18/12:30am 19.8 WNW 3 3 1009.8 - 0.4 - Cloudy 10 - - - -
18/12:00am 19.9 SW 3 4 1010.1 - 0.4 - Cloudy 10 - - - -
 
Date/Time
EDT
Temp

°C
Wind Pressure Rain
since 9am
mm
Weather Cloud Vis
km
Sea
Height
m
Swell
Dir
 
Speed
knots
Gust
knots
hPa Trend Height
m
Period
s
Dir
17/11:30pm 20.1 CALM 0 0 1010.6 - 0.4 - Cloudy 10 - - - -
17/11:00pm 20.0 SW 4 7 1010.4 - 0.4 - Cloudy 10 - - - -
17/10:30pm 20.2 WSW 3 5 1010.3 - 0.4 - Partly cloudy 10 - - - -
17/10:00pm 19.9 SW 5 6 1010.4 - 0.4 - Partly cloudy 10 - - - -
17/09:30pm 19.7 WNW 5 9 1010.2 - 0.4 - Partly cloudy 10 - - - -
17/09:00pm 20.2 W 3 5 1009.9 - 0.4 - Cloudy 10 - - - -
17/08:30pm 19.8 NW 8 14 1010.7 - 0.4 - Partly cloudy 10 - - - -
17/08:00pm 20.5 WNW 6 12 1009.3 - 0.4 - Partly cloudy 10 - - - -
17/07:51pm 20.6 NNW 8 14 1009.2 - 0.4 - Partly cloudy 10 - - - -
17/07:30pm 20.6 SSE 8 13 1007.1 - 0.0 - Partly cloudy 10 - - - -
17/07:00pm 21.6 SSE 8 13 1008.4 - 0.0 - Partly cloudy 10 - - - -

Other Formats:

Comma delimited format used in spreadsheet applications
http://www.bom.gov.au/fwo/IDN60701/IDN60701.94786.axf

JavaScript Object Notation format (JSON) in row-major order
http://www.bom.gov.au/fwo/IDN60701/IDN60701.94786.json